sensor_id;sensor_type;location;lat;lon;timestamp;P1;durP1;ratioP1;P2;durP2;ratioP2
16115;SDS011;8162;47.104;15.432;2022-12-07T00:03:43;16.77;;;11.30;;
16115;SDS011;8162;47.104;15.432;2022-12-07T00:06:10;15.83;;;9.53;;
16115;SDS011;8162;47.104;15.432;2022-12-07T00:08:37;15.90;;;11.03;;
16115;SDS011;8162;47.104;15.432;2022-12-07T00:11:04;17.43;;;10.57;;
16115;SDS011;8162;47.104;15.432;2022-12-07T00:13:31;19.13;;;13.03;;
16115;SDS011;8162;47.104;15.432;2022-12-07T00:16:01;14.53;;;10.13;;
16115;SDS011;8162;47.104;15.432;2022-12-07T00:18:28;14.80;;;8.90;;
16115;SDS011;8162;47.104;15.432;2022-12-07T00:20:58;16.93;;;11.37;;
16115;SDS011;8162;47.104;15.432;2022-12-07T00:23:29;15.60;;;10.63;;
16115;SDS011;8162;47.104;15.432;2022-12-07T00:25:55;16.77;;;10.30;;
16115;SDS011;8162;47.104;15.432;2022-12-07T00:28:20;15.50;;;10.60;;
16115;SDS011;8162;47.104;15.432;2022-12-07T00:30:46;13.27;;;8.77;;
16115;SDS011;8162;47.104;15.432;2022-12-07T00:33:12;12.60;;;9.77;;
16115;SDS011;8162;47.104;15.432;2022-12-07T00:35:37;15.37;;;9.47;;
16115;SDS011;8162;47.104;15.432;2022-12-07T00:38:03;14.47;;;9.97;;
16115;SDS011;8162;47.104;15.432;2022-12-07T00:40:28;17.80;;;11.47;;
16115;SDS011;8162;47.104;15.432;2022-12-07T00:42:54;16.50;;;11.50;;
16115;SDS011;8162;47.104;15.432;2022-12-07T00:45:20;19.03;;;12.13;;
16115;SDS011;8162;47.104;15.432;2022-12-07T00:47:45;18.13;;;10.17;;
16115;SDS011;8162;47.104;15.432;2022-12-07T00:50:11;17.63;;;11.23;;
16115;SDS011;8162;47.104;15.432;2022-12-07T00:52:37;15.80;;;10.97;;
16115;SDS011;8162;47.104;15.432;2022-12-07T00:55:02;17.40;;;10.70;;
16115;SDS011;8162;47.104;15.432;2022-12-07T00:57:29;14.67;;;9.83;;
16115;SDS011;8162;47.104;15.432;2022-12-07T00:59:56;13.30;;;9.63;;
16115;SDS011;8162;47.104;15.432;2022-12-07T01:02:22;12.03;;;7.93;;
16115;SDS011;8162;47.104;15.432;2022-12-07T01:04:48;16.03;;;11.67;;
16115;SDS011;8162;47.104;15.432;2022-12-07T01:07:14;13.57;;;9.67;;
16115;SDS011;8162;47.104;15.432;2022-12-07T01:09:40;17.70;;;11.53;;
16115;SDS011;8162;47.104;15.432;2022-12-07T01:12:06;16.87;;;11.93;;
16115;SDS011;8162;47.104;15.432;2022-12-07T01:14:31;16.90;;;11.67;;
16115;SDS011;8162;47.104;15.432;2022-12-07T01:16:57;19.00;;;11.20;;
16115;SDS011;8162;47.104;15.432;2022-12-07T01:19:22;13.53;;;10.10;;
16115;SDS011;8162;47.104;15.432;2022-12-07T01:21:48;15.03;;;9.67;;
16115;SDS011;8162;47.104;15.432;2022-12-07T01:24:14;18.40;;;12.33;;
16115;SDS011;8162;47.104;15.432;2022-12-07T01:26:39;11.87;;;8.03;;
16115;SDS011;8162;47.104;15.432;2022-12-07T01:29:06;13.60;;;8.63;;
16115;SDS011;8162;47.104;15.432;2022-12-07T01:31:31;14.97;;;10.67;;
16115;SDS011;8162;47.104;15.432;2022-12-07T01:33:58;18.03;;;11.57;;
16115;SDS011;8162;47.104;15.432;2022-12-07T01:36:25;16.43;;;11.00;;
16115;SDS011;8162;47.104;15.432;2022-12-07T01:38:57;13.90;;;9.50;;
16115;SDS011;8162;47.104;15.432;2022-12-07T01:41:25;15.03;;;10.73;;
16115;SDS011;8162;47.104;15.432;2022-12-07T01:46:37;14.97;;;10.10;;
16115;SDS011;8162;47.104;15.432;2022-12-07T01:49:04;13.20;;;9.00;;
16115;SDS011;8162;47.104;15.432;2022-12-07T01:51:33;15.67;;;10.07;;
16115;SDS011;8162;47.104;15.432;2022-12-07T01:54:02;15.33;;;10.70;;
16115;SDS011;8162;47.104;15.432;2022-12-07T01:56:28;13.87;;;9.77;;
16115;SDS011;8162;47.104;15.432;2022-12-07T01:58:54;19.83;;;11.37;;
16115;SDS011;8162;47.104;15.432;2022-12-07T02:01:22;15.13;;;10.77;;
16115;SDS011;8162;47.104;15.432;2022-12-07T02:03:48;13.93;;;9.17;;
16115;SDS011;8162;47.104;15.432;2022-12-07T02:06:15;15.53;;;9.90;;
16115;SDS011;8162;47.104;15.432;2022-12-07T02:08:45;15.03;;;9.27;;
16115;SDS011;8162;47.104;15.432;2022-12-07T02:11:12;23.20;;;11.87;;
16115;SDS011;8162;47.104;15.432;2022-12-07T02:13:39;15.43;;;10.73;;
16115;SDS011;8162;47.104;15.432;2022-12-07T02:16:17;17.93;;;11.77;;
16115;SDS011;8162;47.104;15.432;2022-12-07T02:30:06;14.20;;;8.70;;
16115;SDS011;8162;47.104;15.432;2022-12-07T02:38:02;14.83;;;9.60;;
16115;SDS011;8162;47.104;15.432;2022-12-07T02:40:52;14.63;;;9.30;;
16115;SDS011;8162;47.104;15.432;2022-12-07T02:43:24;17.17;;;10.00;;
16115;SDS011;8162;47.104;15.432;2022-12-07T02:45:53;15.40;;;9.10;;
16115;SDS011;8162;47.104;15.432;2022-12-07T02:48:26;9.57;;;7.70;;
16115;SDS011;8162;47.104;15.432;2022-12-07T02:50:53;11.03;;;7.37;;
16115;SDS011;8162;47.104;15.432;2022-12-07T02:56:03;11.27;;;8.17;;
16115;SDS011;8162;47.104;15.432;2022-12-07T03:01:15;11.53;;;8.10;;
16115;SDS011;8162;47.104;15.432;2022-12-07T03:04:05;9.80;;;7.20;;
16115;SDS011;8162;47.104;15.432;2022-12-07T03:06:49;10.47;;;7.90;;
16115;SDS011;8162;47.104;15.432;2022-12-07T03:09:24;10.30;;;6.77;;
16115;SDS011;8162;47.104;15.432;2022-12-07T03:12:01;12.17;;;7.23;;
16115;SDS011;8162;47.104;15.432;2022-12-07T03:14:38;10.53;;;7.27;;
16115;SDS011;8162;47.104;15.432;2022-12-07T03:17:18;8.77;;;6.67;;
16115;SDS011;8162;47.104;15.432;2022-12-07T03:19:49;12.33;;;7.60;;
16115;SDS011;8162;47.104;15.432;2022-12-07T03:22:18;9.33;;;6.90;;
16115;SDS011;8162;47.104;15.432;2022-12-07T03:24:56;7.80;;;6.07;;
16115;SDS011;8162;47.104;15.432;2022-12-07T03:27:27;8.70;;;6.23;;
16115;SDS011;8162;47.104;15.432;2022-12-07T03:30:08;8.37;;;6.43;;
16115;SDS011;8162;47.104;15.432;2022-12-07T03:32:48;8.90;;;6.17;;
16115;SDS011;8162;47.104;15.432;2022-12-07T03:35:32;10.47;;;6.30;;
16115;SDS011;8162;47.104;15.432;2022-12-07T03:38:13;12.30;;;6.87;;
16115;SDS011;8162;47.104;15.432;2022-12-07T03:40:47;9.33;;;6.33;;
16115;SDS011;8162;47.104;15.432;2022-12-07T03:43:14;8.00;;;6.57;;
16115;SDS011;8162;47.104;15.432;2022-12-07T03:45:43;8.97;;;6.57;;
16115;SDS011;8162;47.104;15.432;2022-12-07T03:48:25;6.43;;;5.33;;
16115;SDS011;8162;47.104;15.432;2022-12-07T03:51:02;10.50;;;7.47;;
16115;SDS011;8162;47.104;15.432;2022-12-07T03:53:35;10.57;;;6.80;;
16115;SDS011;8162;47.104;15.432;2022-12-07T03:56:09;8.13;;;6.83;;
16115;SDS011;8162;47.104;15.432;2022-12-07T03:58:36;10.17;;;7.10;;
16115;SDS011;8162;47.104;15.432;2022-12-07T04:01:03;9.47;;;7.27;;
16115;SDS011;8162;47.104;15.432;2022-12-07T04:03:29;9.60;;;7.07;;
16115;SDS011;8162;47.104;15.432;2022-12-07T04:05:54;7.23;;;5.50;;
16115;SDS011;8162;47.104;15.432;2022-12-07T04:08:20;8.67;;;6.27;;
16115;SDS011;8162;47.104;15.432;2022-12-07T04:10:46;8.87;;;6.63;;
16115;SDS011;8162;47.104;15.432;2022-12-07T04:13:12;9.00;;;7.40;;
16115;SDS011;8162;47.104;15.432;2022-12-07T04:15:37;6.50;;;5.47;;
16115;SDS011;8162;47.104;15.432;2022-12-07T04:18:03;7.00;;;5.83;;
16115;SDS011;8162;47.104;15.432;2022-12-07T04:20:29;11.00;;;6.53;;
16115;SDS011;8162;47.104;15.432;2022-12-07T04:22:54;10.17;;;6.87;;
16115;SDS011;8162;47.104;15.432;2022-12-07T04:25:20;9.90;;;6.40;;
16115;SDS011;8162;47.104;15.432;2022-12-07T04:27:46;7.60;;;6.00;;
16115;SDS011;8162;47.104;15.432;2022-12-07T04:30:11;5.93;;;4.97;;
16115;SDS011;8162;47.104;15.432;2022-12-07T04:32:37;8.27;;;5.70;;
16115;SDS011;8162;47.104;15.432;2022-12-07T04:35:03;8.53;;;6.47;;
16115;SDS011;8162;47.104;15.432;2022-12-07T04:37:29;8.60;;;6.67;;
16115;SDS011;8162;47.104;15.432;2022-12-07T04:39:55;8.30;;;6.73;;
16115;SDS011;8162;47.104;15.432;2022-12-07T04:42:20;7.10;;;5.67;;
16115;SDS011;8162;47.104;15.432;2022-12-07T04:44:46;6.10;;;5.27;;
16115;SDS011;8162;47.104;15.432;2022-12-07T04:47:12;6.40;;;5.80;;
16115;SDS011;8162;47.104;15.432;2022-12-07T04:49:37;8.23;;;6.33;;
16115;SDS011;8162;47.104;15.432;2022-12-07T04:52:03;10.20;;;7.07;;
16115;SDS011;8162;47.104;15.432;2022-12-07T04:54:29;10.20;;;7.70;;
16115;SDS011;8162;47.104;15.432;2022-12-07T04:56:54;10.27;;;7.10;;
16115;SDS011;8162;47.104;15.432;2022-12-07T04:59:20;8.23;;;6.53;;
16115;SDS011;8162;47.104;15.432;2022-12-07T05:01:45;7.43;;;6.30;;
16115;SDS011;8162;47.104;15.432;2022-12-07T05:04:11;8.30;;;6.87;;
16115;SDS011;8162;47.104;15.432;2022-12-07T05:06:37;6.70;;;5.73;;
16115;SDS011;8162;47.104;15.432;2022-12-07T05:09:03;8.67;;;6.63;;
16115;SDS011;8162;47.104;15.432;2022-12-07T05:11:29;8.43;;;6.63;;
16115;SDS011;8162;47.104;15.432;2022-12-07T05:14:05;7.50;;;6.07;;
16115;SDS011;8162;47.104;15.432;2022-12-07T05:16:36;9.53;;;6.80;;
16115;SDS011;8162;47.104;15.432;2022-12-07T05:19:02;9.77;;;6.17;;
16115;SDS011;8162;47.104;15.432;2022-12-07T05:21:28;9.70;;;7.93;;
16115;SDS011;8162;47.104;15.432;2022-12-07T05:23:54;8.73;;;6.97;;
16115;SDS011;8162;47.104;15.432;2022-12-07T05:26:19;8.97;;;7.53;;
16115;SDS011;8162;47.104;15.432;2022-12-07T05:28:49;9.07;;;7.70;;
16115;SDS011;8162;47.104;15.432;2022-12-07T05:31:15;10.17;;;7.57;;
16115;SDS011;8162;47.104;15.432;2022-12-07T05:33:41;10.33;;;6.60;;
16115;SDS011;8162;47.104;15.432;2022-12-07T05:36:07;10.37;;;7.33;;
16115;SDS011;8162;47.104;15.432;2022-12-07T05:38:32;10.13;;;8.20;;
16115;SDS011;8162;47.104;15.432;2022-12-07T05:41:02;9.50;;;7.33;;
16115;SDS011;8162;47.104;15.432;2022-12-07T05:43:29;9.40;;;7.67;;
16115;SDS011;8162;47.104;15.432;2022-12-07T05:45:55;10.00;;;8.00;;
16115;SDS011;8162;47.104;15.432;2022-12-07T05:48:21;10.30;;;7.40;;
16115;SDS011;8162;47.104;15.432;2022-12-07T05:50:50;8.37;;;6.93;;
16115;SDS011;8162;47.104;15.432;2022-12-07T05:53:16;9.17;;;7.03;;
16115;SDS011;8162;47.104;15.432;2022-12-07T05:55:43;9.50;;;6.17;;
16115;SDS011;8162;47.104;15.432;2022-12-07T05:58:09;12.17;;;7.60;;
16115;SDS011;8162;47.104;15.432;2022-12-07T06:00:56;9.23;;;7.17;;
16115;SDS011;8162;47.104;15.432;2022-12-07T06:03:22;9.33;;;7.47;;
16115;SDS011;8162;47.104;15.432;2022-12-07T06:05:48;7.93;;;7.13;;
16115;SDS011;8162;47.104;15.432;2022-12-07T06:08:14;8.83;;;7.27;;
16115;SDS011;8162;47.104;15.432;2022-12-07T06:10:40;9.83;;;7.40;;
16115;SDS011;8162;47.104;15.432;2022-12-07T06:13:07;10.37;;;7.60;;
16115;SDS011;8162;47.104;15.432;2022-12-07T06:15:35;7.73;;;6.60;;
16115;SDS011;8162;47.104;15.432;2022-12-07T06:18:01;9.47;;;6.63;;
16115;SDS011;8162;47.104;15.432;2022-12-07T06:20:27;6.97;;;5.70;;
16115;SDS011;8162;47.104;15.432;2022-12-07T06:22:52;6.80;;;6.10;;
16115;SDS011;8162;47.104;15.432;2022-12-07T06:25:18;6.57;;;5.40;;
16115;SDS011;8162;47.104;15.432;2022-12-07T06:27:44;7.70;;;5.87;;
16115;SDS011;8162;47.104;15.432;2022-12-07T06:30:09;8.57;;;5.97;;
16115;SDS011;8162;47.104;15.432;2022-12-07T06:32:36;6.97;;;5.37;;
16115;SDS011;8162;47.104;15.432;2022-12-07T06:35:02;8.73;;;6.80;;
16115;SDS011;8162;47.104;15.432;2022-12-07T06:37:28;9.03;;;6.70;;
16115;SDS011;8162;47.104;15.432;2022-12-07T06:39:53;11.40;;;7.33;;
16115;SDS011;8162;47.104;15.432;2022-12-07T06:42:19;8.93;;;6.43;;
16115;SDS011;8162;47.104;15.432;2022-12-07T06:44:45;10.93;;;8.17;;
16115;SDS011;8162;47.104;15.432;2022-12-07T06:47:10;12.30;;;8.43;;
16115;SDS011;8162;47.104;15.432;2022-12-07T06:49:36;15.07;;;8.80;;
16115;SDS011;8162;47.104;15.432;2022-12-07T06:52:02;14.90;;;8.93;;
16115;SDS011;8162;47.104;15.432;2022-12-07T06:54:29;16.43;;;8.77;;
16115;SDS011;8162;47.104;15.432;2022-12-07T06:56:55;13.60;;;9.80;;
16115;SDS011;8162;47.104;15.432;2022-12-07T06:59:21;12.73;;;8.20;;
16115;SDS011;8162;47.104;15.432;2022-12-07T07:01:47;21.10;;;10.80;;
16115;SDS011;8162;47.104;15.432;2022-12-07T07:04:12;17.63;;;10.60;;
16115;SDS011;8162;47.104;15.432;2022-12-07T07:06:38;14.20;;;9.93;;
16115;SDS011;8162;47.104;15.432;2022-12-07T07:09:04;18.50;;;10.80;;
16115;SDS011;8162;47.104;15.432;2022-12-07T07:11:29;16.30;;;11.20;;
16115;SDS011;8162;47.104;15.432;2022-12-07T07:13:55;18.40;;;10.00;;
16115;SDS011;8162;47.104;15.432;2022-12-07T07:16:23;14.13;;;10.67;;
16115;SDS011;8162;47.104;15.432;2022-12-07T07:18:49;18.13;;;11.00;;
16115;SDS011;8162;47.104;15.432;2022-12-07T07:21:15;16.47;;;11.13;;
16115;SDS011;8162;47.104;15.432;2022-12-07T07:23:40;19.40;;;11.57;;
16115;SDS011;8162;47.104;15.432;2022-12-07T07:26:06;19.63;;;11.80;;
16115;SDS011;8162;47.104;15.432;2022-12-07T07:28:32;17.80;;;12.37;;
16115;SDS011;8162;47.104;15.432;2022-12-07T07:30:57;17.37;;;10.33;;
16115;SDS011;8162;47.104;15.432;2022-12-07T07:33:23;16.80;;;10.97;;
16115;SDS011;8162;47.104;15.432;2022-12-07T07:35:49;19.20;;;10.73;;
16115;SDS011;8162;47.104;15.432;2022-12-07T07:38:14;14.60;;;10.20;;
16115;SDS011;8162;47.104;15.432;2022-12-07T07:40:40;16.63;;;11.37;;
16115;SDS011;8162;47.104;15.432;2022-12-07T07:43:06;13.80;;;10.13;;
16115;SDS011;8162;47.104;15.432;2022-12-07T07:45:31;14.13;;;10.70;;
16115;SDS011;8162;47.104;15.432;2022-12-07T07:47:57;12.93;;;9.77;;
16115;SDS011;8162;47.104;15.432;2022-12-07T07:50:23;14.07;;;8.80;;
16115;SDS011;8162;47.104;15.432;2022-12-07T07:52:48;16.37;;;10.17;;
16115;SDS011;8162;47.104;15.432;2022-12-07T07:55:16;15.10;;;10.73;;
16115;SDS011;8162;47.104;15.432;2022-12-07T07:57:41;15.87;;;12.03;;
16115;SDS011;8162;47.104;15.432;2022-12-07T08:00:09;15.77;;;10.40;;
16115;SDS011;8162;47.104;15.432;2022-12-07T08:02:37;18.20;;;11.30;;
16115;SDS011;8162;47.104;15.432;2022-12-07T08:05:02;20.83;;;12.50;;
16115;SDS011;8162;47.104;15.432;2022-12-07T08:07:28;17.53;;;12.20;;
16115;SDS011;8162;47.104;15.432;2022-12-07T08:09:54;18.83;;;12.60;;
16115;SDS011;8162;47.104;15.432;2022-12-07T08:12:19;19.10;;;12.27;;
16115;SDS011;8162;47.104;15.432;2022-12-07T08:14:45;25.07;;;13.00;;
16115;SDS011;8162;47.104;15.432;2022-12-07T08:17:11;18.93;;;12.67;;
16115;SDS011;8162;47.104;15.432;2022-12-07T08:19:37;17.60;;;11.27;;
16115;SDS011;8162;47.104;15.432;2022-12-07T08:22:03;18.33;;;12.00;;
16115;SDS011;8162;47.104;15.432;2022-12-07T08:24:29;20.00;;;12.23;;
16115;SDS011;8162;47.104;15.432;2022-12-07T08:26:57;20.87;;;12.10;;
16115;SDS011;8162;47.104;15.432;2022-12-07T08:29:23;18.50;;;11.67;;
16115;SDS011;8162;47.104;15.432;2022-12-07T08:31:48;19.00;;;12.37;;
16115;SDS011;8162;47.104;15.432;2022-12-07T08:34:14;19.83;;;12.10;;
16115;SDS011;8162;47.104;15.432;2022-12-07T08:36:40;20.07;;;13.20;;
16115;SDS011;8162;47.104;15.432;2022-12-07T08:39:06;17.43;;;12.23;;
16115;SDS011;8162;47.104;15.432;2022-12-07T08:41:32;19.30;;;12.73;;
16115;SDS011;8162;47.104;15.432;2022-12-07T08:43:58;16.07;;;12.20;;
16115;SDS011;8162;47.104;15.432;2022-12-07T08:46:29;20.33;;;12.80;;
16115;SDS011;8162;47.104;15.432;2022-12-07T08:49:04;18.03;;;12.30;;
16115;SDS011;8162;47.104;15.432;2022-12-07T08:51:35;17.23;;;12.33;;
16115;SDS011;8162;47.104;15.432;2022-12-07T08:54:03;20.50;;;12.73;;
16115;SDS011;8162;47.104;15.432;2022-12-07T08:56:31;16.93;;;12.17;;
16115;SDS011;8162;47.104;15.432;2022-12-07T08:58:57;17.03;;;12.30;;
16115;SDS011;8162;47.104;15.432;2022-12-07T09:01:23;17.90;;;11.93;;
16115;SDS011;8162;47.104;15.432;2022-12-07T09:03:49;13.37;;;10.20;;
16115;SDS011;8162;47.104;15.432;2022-12-07T09:06:14;18.23;;;12.87;;
16115;SDS011;8162;47.104;15.432;2022-12-07T09:08:41;17.97;;;12.67;;
16115;SDS011;8162;47.104;15.432;2022-12-07T09:11:10;14.10;;;9.87;;
16115;SDS011;8162;47.104;15.432;2022-12-07T09:13:36;14.93;;;11.37;;
16115;SDS011;8162;47.104;15.432;2022-12-07T09:16:02;15.40;;;11.53;;
16115;SDS011;8162;47.104;15.432;2022-12-07T09:18:27;16.03;;;11.23;;
16115;SDS011;8162;47.104;15.432;2022-12-07T09:20:53;15.33;;;10.70;;
16115;SDS011;8162;47.104;15.432;2022-12-07T09:23:19;12.43;;;9.17;;
16115;SDS011;8162;47.104;15.432;2022-12-07T09:25:45;12.70;;;10.07;;
16115;SDS011;8162;47.104;15.432;2022-12-07T09:28:10;11.33;;;9.53;;
16115;SDS011;8162;47.104;15.432;2022-12-07T09:30:36;11.90;;;9.70;;
16115;SDS011;8162;47.104;15.432;2022-12-07T09:33:01;14.77;;;10.77;;
16115;SDS011;8162;47.104;15.432;2022-12-07T09:35:27;12.10;;;9.20;;
16115;SDS011;8162;47.104;15.432;2022-12-07T09:37:53;11.20;;;9.37;;
16115;SDS011;8162;47.104;15.432;2022-12-07T09:40:19;11.27;;;8.97;;
16115;SDS011;8162;47.104;15.432;2022-12-07T09:42:47;11.23;;;8.03;;
16115;SDS011;8162;47.104;15.432;2022-12-07T09:45:18;11.77;;;8.00;;
16115;SDS011;8162;47.104;15.432;2022-12-07T09:47:47;12.00;;;6.87;;
16115;SDS011;8162;47.104;15.432;2022-12-07T09:50:14;7.80;;;7.03;;
16115;SDS011;8162;47.104;15.432;2022-12-07T09:52:44;10.50;;;6.47;;
16115;SDS011;8162;47.104;15.432;2022-12-07T09:55:15;8.10;;;6.40;;
16115;SDS011;8162;47.104;15.432;2022-12-07T09:57:45;7.80;;;6.57;;
16115;SDS011;8162;47.104;15.432;2022-12-07T10:00:15;7.17;;;6.17;;
16115;SDS011;8162;47.104;15.432;2022-12-07T10:02:55;8.60;;;6.20;;
16115;SDS011;8162;47.104;15.432;2022-12-07T10:05:44;7.23;;;6.13;;
16115;SDS011;8162;47.104;15.432;2022-12-07T10:08:13;9.67;;;6.43;;
16115;SDS011;8162;47.104;15.432;2022-12-07T10:10:42;7.80;;;6.40;;
16115;SDS011;8162;47.104;15.432;2022-12-07T10:13:12;6.90;;;5.70;;
16115;SDS011;8162;47.104;15.432;2022-12-07T10:15:54;6.33;;;5.50;;
16115;SDS011;8162;47.104;15.432;2022-12-07T10:26:41;8.00;;;6.50;;
16115;SDS011;8162;47.104;15.432;2022-12-07T10:31:41;7.13;;;5.90;;
16115;SDS011;8162;47.104;15.432;2022-12-07T10:37:07;7.33;;;6.33;;
16115;SDS011;8162;47.104;15.432;2022-12-07T10:39:51;9.17;;;6.33;;
16115;SDS011;8162;47.104;15.432;2022-12-07T10:42:28;7.63;;;6.40;;
16115;SDS011;8162;47.104;15.432;2022-12-07T10:47:48;9.63;;;6.60;;
16115;SDS011;8162;47.104;15.432;2022-12-07T11:01:39;11.03;;;7.33;;
16115;SDS011;8162;47.104;15.432;2022-12-07T11:12:22;14.53;;;8.10;;
16115;SDS011;8162;47.104;15.432;2022-12-07T11:23:19;12.23;;;8.30;;
16115;SDS011;8162;47.104;15.432;2022-12-07T11:31:04;15.87;;;8.40;;
16115;SDS011;8162;47.104;15.432;2022-12-07T11:33:46;8.33;;;7.13;;
16115;SDS011;8162;47.104;15.432;2022-12-07T11:36:31;11.63;;;7.27;;
16115;SDS011;8162;47.104;15.432;2022-12-07T11:39:16;8.97;;;7.57;;
16115;SDS011;8162;47.104;15.432;2022-12-07T11:41:47;8.30;;;6.40;;
16115;SDS011;8162;47.104;15.432;2022-12-07T11:44:23;9.03;;;7.73;;
16115;SDS011;8162;47.104;15.432;2022-12-07T11:52:27;11.53;;;8.13;;
16115;SDS011;8162;47.104;15.432;2022-12-07T11:56:01;11.77;;;7.80;;
16115;SDS011;8162;47.104;15.432;2022-12-07T11:58:04;10.93;;;6.87;;
16115;SDS011;8162;47.104;15.432;2022-12-07T12:00:39;12.90;;;10.07;;
16115;SDS011;8162;47.104;15.432;2022-12-07T12:03:10;14.60;;;9.83;;
16115;SDS011;8162;47.104;15.432;2022-12-07T12:05:41;10.97;;;9.17;;
16115;SDS011;8162;47.104;15.432;2022-12-07T12:08:17;11.70;;;8.47;;
16115;SDS011;8162;47.104;15.432;2022-12-07T12:13:36;13.20;;;9.37;;
16115;SDS011;8162;47.104;15.432;2022-12-07T12:21:37;11.70;;;7.77;;
16115;SDS011;8162;47.104;15.432;2022-12-07T12:24:11;10.67;;;8.10;;
16115;SDS011;8162;47.104;15.432;2022-12-07T12:26:54;9.13;;;7.37;;
16115;SDS011;8162;47.104;15.432;2022-12-07T12:29:31;8.60;;;7.70;;
16115;SDS011;8162;47.104;15.432;2022-12-07T12:32:06;12.20;;;7.70;;
16115;SDS011;8162;47.104;15.432;2022-12-07T12:42:48;7.87;;;6.33;;
16115;SDS011;8162;47.104;15.432;2022-12-07T12:45:23;11.93;;;8.43;;
16115;SDS011;8162;47.104;15.432;2022-12-07T12:50:29;8.43;;;7.03;;
16115;SDS011;8162;47.104;15.432;2022-12-07T13:00:43;7.47;;;6.00;;
16115;SDS011;8162;47.104;15.432;2022-12-07T13:03:23;7.90;;;6.60;;
16115;SDS011;8162;47.104;15.432;2022-12-07T13:08:44;4.37;;;3.93;;
16115;SDS011;8162;47.104;15.432;2022-12-07T13:11:25;6.00;;;4.57;;
16115;SDS011;8162;47.104;15.432;2022-12-07T13:17:02;5.07;;;4.50;;
16115;SDS011;8162;47.104;15.432;2022-12-07T13:25:03;6.10;;;4.70;;
16115;SDS011;8162;47.104;15.432;2022-12-07T13:28:16;5.33;;;4.63;;
16115;SDS011;8162;47.104;15.432;2022-12-07T13:30:59;5.80;;;5.23;;
16115;SDS011;8162;47.104;15.432;2022-12-07T13:33:34;5.87;;;5.17;;
16115;SDS011;8162;47.104;15.432;2022-12-07T13:36:00;5.83;;;5.27;;
16115;SDS011;8162;47.104;15.432;2022-12-07T13:41:00;5.40;;;4.90;;
16115;SDS011;8162;47.104;15.432;2022-12-07T13:43:30;5.37;;;4.80;;
16115;SDS011;8162;47.104;15.432;2022-12-07T13:45:57;6.30;;;5.70;;
16115;SDS011;8162;47.104;15.432;2022-12-07T13:48:31;5.33;;;4.83;;
16115;SDS011;8162;47.104;15.432;2022-12-07T13:51:01;5.37;;;4.67;;
16115;SDS011;8162;47.104;15.432;2022-12-07T13:53:28;4.90;;;4.07;;
16115;SDS011;8162;47.104;15.432;2022-12-07T13:55:58;4.80;;;4.33;;
16115;SDS011;8162;47.104;15.432;2022-12-07T13:58:26;4.97;;;4.53;;
16115;SDS011;8162;47.104;15.432;2022-12-07T14:00:56;5.83;;;4.53;;
16115;SDS011;8162;47.104;15.432;2022-12-07T14:03:27;4.93;;;4.23;;
16115;SDS011;8162;47.104;15.432;2022-12-07T14:06:16;7.13;;;5.73;;
16115;SDS011;8162;47.104;15.432;2022-12-07T14:08:50;6.23;;;5.43;;
16115;SDS011;8162;47.104;15.432;2022-12-07T14:11:30;5.30;;;4.70;;
16115;SDS011;8162;47.104;15.432;2022-12-07T14:13:57;6.30;;;5.33;;
16115;SDS011;8162;47.104;15.432;2022-12-07T14:19:01;10.20;;;7.27;;
16115;SDS011;8162;47.104;15.432;2022-12-07T14:21:29;10.97;;;8.37;;
16115;SDS011;8162;47.104;15.432;2022-12-07T14:26:36;17.67;;;12.40;;
16115;SDS011;8162;47.104;15.432;2022-12-07T14:29:20;18.93;;;13.33;;
16115;SDS011;8162;47.104;15.432;2022-12-07T14:31:56;18.30;;;14.47;;
16115;SDS011;8162;47.104;15.432;2022-12-07T14:34:23;23.70;;;16.40;;
16115;SDS011;8162;47.104;15.432;2022-12-07T14:36:49;28.23;;;18.63;;
16115;SDS011;8162;47.104;15.432;2022-12-07T14:39:15;23.73;;;17.47;;
16115;SDS011;8162;47.104;15.432;2022-12-07T14:41:41;23.80;;;16.83;;
16115;SDS011;8162;47.104;15.432;2022-12-07T14:44:15;22.97;;;16.90;;
16115;SDS011;8162;47.104;15.432;2022-12-07T14:46:41;34.63;;;23.60;;
16115;SDS011;8162;47.104;15.432;2022-12-07T14:49:07;36.83;;;24.50;;
16115;SDS011;8162;47.104;15.432;2022-12-07T14:51:33;31.07;;;23.60;;
16115;SDS011;8162;47.104;15.432;2022-12-07T14:54:01;28.57;;;21.90;;
16115;SDS011;8162;47.104;15.432;2022-12-07T14:56:28;22.83;;;17.13;;
16115;SDS011;8162;47.104;15.432;2022-12-07T14:58:54;24.90;;;16.87;;
16115;SDS011;8162;47.104;15.432;2022-12-07T15:01:19;36.30;;;21.53;;
16115;SDS011;8162;47.104;15.432;2022-12-07T15:03:45;37.07;;;23.73;;
16115;SDS011;8162;47.104;15.432;2022-12-07T15:06:13;31.90;;;21.07;;
16115;SDS011;8162;47.104;15.432;2022-12-07T15:08:40;27.87;;;19.37;;
16115;SDS011;8162;47.104;15.432;2022-12-07T15:11:09;27.10;;;18.10;;
16115;SDS011;8162;47.104;15.432;2022-12-07T15:13:39;26.77;;;18.43;;
16115;SDS011;8162;47.104;15.432;2022-12-07T15:16:24;21.53;;;14.70;;
16115;SDS011;8162;47.104;15.432;2022-12-07T15:18:49;19.13;;;13.70;;
16115;SDS011;8162;47.104;15.432;2022-12-07T15:21:16;18.90;;;14.00;;
16115;SDS011;8162;47.104;15.432;2022-12-07T15:23:42;21.43;;;14.90;;
16115;SDS011;8162;47.104;15.432;2022-12-07T15:26:09;20.17;;;14.43;;
16115;SDS011;8162;47.104;15.432;2022-12-07T15:28:35;27.27;;;17.93;;
16115;SDS011;8162;47.104;15.432;2022-12-07T15:31:01;21.93;;;16.30;;
16115;SDS011;8162;47.104;15.432;2022-12-07T15:33:27;24.80;;;17.03;;
16115;SDS011;8162;47.104;15.432;2022-12-07T15:35:53;24.97;;;15.73;;
16115;SDS011;8162;47.104;15.432;2022-12-07T15:38:18;24.10;;;17.63;;
16115;SDS011;8162;47.104;15.432;2022-12-07T15:40:47;22.57;;;16.33;;
16115;SDS011;8162;47.104;15.432;2022-12-07T15:43:13;22.67;;;16.83;;
16115;SDS011;8162;47.104;15.432;2022-12-07T15:45:57;19.63;;;14.43;;
16115;SDS011;8162;47.104;15.432;2022-12-07T15:48:24;22.80;;;16.03;;
16115;SDS011;8162;47.104;15.432;2022-12-07T15:50:50;26.00;;;18.27;;
16115;SDS011;8162;47.104;15.432;2022-12-07T15:53:16;21.83;;;15.47;;
16115;SDS011;8162;47.104;15.432;2022-12-07T15:55:42;20.53;;;14.37;;
16115;SDS011;8162;47.104;15.432;2022-12-07T15:58:08;24.13;;;15.30;;
16115;SDS011;8162;47.104;15.432;2022-12-07T16:00:33;20.97;;;16.63;;
16115;SDS011;8162;47.104;15.432;2022-12-07T16:02:59;19.97;;;14.57;;
16115;SDS011;8162;47.104;15.432;2022-12-07T16:05:25;22.67;;;14.67;;
16115;SDS011;8162;47.104;15.432;2022-12-07T16:07:50;24.80;;;16.43;;
16115;SDS011;8162;47.104;15.432;2022-12-07T16:10:16;22.83;;;15.57;;
16115;SDS011;8162;47.104;15.432;2022-12-07T16:12:42;25.33;;;17.23;;
16115;SDS011;8162;47.104;15.432;2022-12-07T16:15:07;21.57;;;15.17;;
16115;SDS011;8162;47.104;15.432;2022-12-07T16:17:34;17.73;;;14.13;;
16115;SDS011;8162;47.104;15.432;2022-12-07T16:19:59;20.03;;;16.27;;
16115;SDS011;8162;47.104;15.432;2022-12-07T16:22:25;20.03;;;14.43;;
16115;SDS011;8162;47.104;15.432;2022-12-07T16:24:51;22.33;;;15.27;;
16115;SDS011;8162;47.104;15.432;2022-12-07T16:27:16;25.23;;;16.13;;
16115;SDS011;8162;47.104;15.432;2022-12-07T16:29:42;25.50;;;16.87;;
16115;SDS011;8162;47.104;15.432;2022-12-07T16:32:07;27.83;;;17.80;;
16115;SDS011;8162;47.104;15.432;2022-12-07T16:34:33;27.37;;;17.07;;
16115;SDS011;8162;47.104;15.432;2022-12-07T16:36:59;21.90;;;15.10;;
16115;SDS011;8162;47.104;15.432;2022-12-07T16:39:24;25.63;;;15.40;;
16115;SDS011;8162;47.104;15.432;2022-12-07T16:41:50;20.57;;;15.57;;
16115;SDS011;8162;47.104;15.432;2022-12-07T16:44:17;21.27;;;15.87;;
16115;SDS011;8162;47.104;15.432;2022-12-07T16:46:43;20.10;;;15.30;;
16115;SDS011;8162;47.104;15.432;2022-12-07T16:49:13;21.93;;;15.37;;
16115;SDS011;8162;47.104;15.432;2022-12-07T16:51:39;21.50;;;15.57;;